createdAt,value
2019-01-29T00:00:29.926Z,62.81
2019-01-29T00:01:33.019Z,62.81
2019-01-29T00:02:32.622Z,62.59
2019-01-29T00:03:14.431Z,62.50
2019-01-29T00:03:50.786Z,62.64
2019-01-29T00:04:27.995Z,62.64
2019-01-29T00:05:04.184Z,62.40
2019-01-29T00:05:40.432Z,62.40
2019-01-29T00:06:26.143Z,62.36
2019-01-29T00:07:13.923Z,62.36
2019-01-29T00:07:50.254Z,62.33
2019-01-29T00:08:26.685Z,62.33
2019-01-29T00:09:03.278Z,62.37
2019-01-29T00:09:39.542Z,62.36
2019-01-29T00:10:18.532Z,62.24
2019-01-29T00:10:54.920Z,62.39
2019-01-29T00:11:31.076Z,62.87
2019-01-29T00:12:08.909Z,62.87
2019-01-29T00:12:52.846Z,62.65
2019-01-29T00:13:29.137Z,62.37
2019-01-29T00:14:05.440Z,62.21
2019-01-29T00:14:41.686Z,62.08
2019-01-29T00:15:19.604Z,61.97
2019-01-29T00:15:55.769Z,61.96
2019-01-29T00:16:32.203Z,62.19
2019-01-29T00:17:08.418Z,62.19
2019-01-29T00:17:44.822Z,61.86
2019-01-29T00:18:21.106Z,61.79
2019-01-29T00:18:57.233Z,61.81
2019-01-29T00:19:33.651Z,61.81
2019-01-29T00:20:12.352Z,61.68
2019-01-29T00:20:48.724Z,61.68
2019-01-29T00:21:26.447Z,61.73
2019-01-29T00:22:02.819Z,61.48
2019-01-29T00:22:39.060Z,61.45
2019-01-29T00:23:15.334Z,61.56
2019-01-29T00:23:51.574Z,61.47
2019-01-29T00:24:27.778Z,61.47
2019-01-29T00:25:04.146Z,61.56
2019-01-29T00:25:40.519Z,61.68
2019-01-29T00:26:17.968Z,61.68
2019-01-29T00:26:55.447Z,61.31
2019-01-29T00:27:31.774Z,61.53
2019-01-29T00:28:09.132Z,61.53
2019-01-29T00:28:45.382Z,61.52
2019-01-29T00:29:23.003Z,61.37
2019-01-29T00:29:59.155Z,61.28
2019-01-29T00:30:35.346Z,61.34
2019-01-29T00:31:11.733Z,61.34
2019-01-29T00:31:51.810Z,61.29
2019-01-29T00:32:29.521Z,61.18
2019-01-29T00:33:08.943Z,61.26
2019-01-29T00:33:45.327Z,61.17
2019-01-29T00:34:23.563Z,61.21
2019-01-29T00:34:59.861Z,61.10
2019-01-29T00:35:37.384Z,60.73
2019-01-29T00:36:13.602Z,60.73
2019-01-29T00:36:50.886Z,60.96
2019-01-29T00:37:32.558Z,61.02
2019-01-29T00:38:11.021Z,60.96
2019-01-29T00:38:48.113Z,60.97
2019-01-29T00:39:25.811Z,60.84
2019-01-29T00:40:02.206Z,60.84
2019-01-29T00:40:38.426Z,60.72
2019-01-29T00:41:15.851Z,60.72
2019-01-29T00:41:58.256Z,60.95
2019-01-29T00:42:36.060Z,60.84
2019-01-29T00:43:12.446Z,61.07
2019-01-29T00:43:50.040Z,60.96
2019-01-29T00:44:29.419Z,60.96
2019-01-29T00:45:07.697Z,60.78
2019-01-29T00:45:44.260Z,60.68
2019-01-29T00:46:20.424Z,60.68
2019-01-29T00:47:02.725Z,60.62
2019-01-29T00:47:45.193Z,60.37
2019-01-29T00:48:21.463Z,60.27
2019-01-29T00:48:59.338Z,60.27
2019-01-29T00:49:37.328Z,60.65
2019-01-29T00:50:14.903Z,60.02
2019-01-29T00:50:51.266Z,59.84
2019-01-29T00:51:28.791Z,59.84
2019-01-29T00:52:06.607Z,60.17
2019-01-29T00:52:46.220Z,60.06
2019-01-29T00:53:22.544Z,60.08
2019-01-29T00:54:06.654Z,60.07
2019-01-29T00:54:44.352Z,60.11
2019-01-29T00:55:20.630Z,60.01
2019-01-29T00:55:56.933Z,60.05
2019-01-29T00:56:34.511Z,59.90
2019-01-29T00:57:14.014Z,60.07
2019-01-29T00:57:51.119Z,60.03
2019-01-29T00:58:27.306Z,60.03
2019-01-29T00:59:03.581Z,59.73
2019-01-29T00:59:41.251Z,59.68
2019-01-29T01:00:30.983Z,59.74
2019-01-29T01:01:07.659Z,59.49
2019-01-29T01:01:47.033Z,59.49
2019-01-29T01:02:29.679Z,59.33
2019-01-29T01:03:06.186Z,60.16
2019-01-29T01:03:42.719Z,60.16
2019-01-29T01:04:22.091Z,59.68
2019-01-29T01:04:58.160Z,59.68
2019-01-29T01:05:34.616Z,59.52
2019-01-29T01:06:10.821Z,59.52
2019-01-29T01:06:48.181Z,59.10
2019-01-29T01:07:27.514Z,59.42
2019-01-29T01:08:05.487Z,58.67
2019-01-29T01:08:41.855Z,58.67
2019-01-29T01:09:22.622Z,59.01
2019-01-29T01:09:58.905Z,59.35
2019-01-29T01:10:47.129Z,59.35
2019-01-29T01:11:23.355Z,58.69
2019-01-29T01:11:59.768Z,58.73
2019-01-29T01:12:35.880Z,58.51
2019-01-29T01:13:13.599Z,58.51
2019-01-29T01:13:50.023Z,58.60
2019-01-29T01:14:26.348Z,58.60
2019-01-29T01:15:04.343Z,58.59
2019-01-29T01:15:40.613Z,58.51
2019-01-29T01:16:16.992Z,58.44
2019-01-29T01:16:53.379Z,58.49
2019-01-29T01:17:29.750Z,59.25
2019-01-29T01:18:07.287Z,58.42
2019-01-29T01:18:43.467Z,58.42
2019-01-29T01:19:19.802Z,57.92
2019-01-29T01:19:56.053Z,58.12
2019-01-29T01:20:32.268Z,58.04
2019-01-29T01:21:08.491Z,58.03
2019-01-29T01:21:46.185Z,58.02
2019-01-29T01:22:24.827Z,57.53
2019-01-29T01:23:01.147Z,57.53
2019-01-29T01:23:37.559Z,57.64
2019-01-29T01:24:16.632Z,57.53
2019-01-29T01:24:52.986Z,57.62
2019-01-29T01:25:35.625Z,57.60
2019-01-29T01:26:13.236Z,57.61
2019-01-29T01:26:49.647Z,57.58
2019-01-29T01:27:25.929Z,57.67
2019-01-29T01:28:03.785Z,57.65
2019-01-29T01:28:41.495Z,57.61
2019-01-29T01:29:17.884Z,57.49
2019-01-29T01:29:54.106Z,57.47
2019-01-29T01:30:31.502Z,57.25
2019-01-29T01:31:07.740Z,57.16
2019-01-29T01:31:43.942Z,57.12
2019-01-29T01:32:20.300Z,56.96
2019-01-29T01:32:56.549Z,56.93
2019-01-29T01:33:34.238Z,57.01
2019-01-29T01:34:10.465Z,57.00
2019-01-29T01:34:46.669Z,57.17
2019-01-29T01:35:23.033Z,56.97
2019-01-29T01:35:59.324Z,56.99
2019-01-29T01:36:39.490Z,56.96
2019-01-29T01:37:15.840Z,56.94
2019-01-29T01:37:52.255Z,56.96
2019-01-29T01:38:28.480Z,57.01
2019-01-29T01:39:08.010Z,57.01
2019-01-29T01:39:44.331Z,57.02
2019-01-29T01:40:27.158Z,57.10
2019-01-29T01:41:04.506Z,57.11
2019-01-29T01:41:44.926Z,57.11
2019-01-29T01:42:21.218Z,57.32
2019-01-29T01:42:57.350Z,57.48
2019-01-29T01:43:33.531Z,57.14
2019-01-29T01:44:10.157Z,57.09
2019-01-29T01:44:48.949Z,57.00
2019-01-29T01:45:26.563Z,56.96
2019-01-29T01:46:04.169Z,56.95
2019-01-29T01:46:43.000Z,57.03
2019-01-29T01:47:23.208Z,57.09
2019-01-29T01:48:00.696Z,57.38
2019-01-29T01:48:36.983Z,57.24
2019-01-29T01:49:14.749Z,57.08
2019-01-29T01:50:11.834Z,56.79
2019-01-29T01:50:48.169Z,55.53
2019-01-29T01:51:25.832Z,55.53
2019-01-29T01:52:02.160Z,55.82
2019-01-29T01:52:39.905Z,55.62
2019-01-29T01:53:17.245Z,55.59
2019-01-29T01:53:53.485Z,55.56
2019-01-29T01:54:29.757Z,55.70
2019-01-29T01:55:09.217Z,55.61
2019-01-29T01:55:46.848Z,55.55
2019-01-29T01:56:55.229Z,55.56
2019-01-29T01:57:33.070Z,55.66
2019-01-29T01:58:09.510Z,55.87
2019-01-29T01:58:47.158Z,55.95
2019-01-29T01:59:24.750Z,55.94
2019-01-29T02:00:00.898Z,56.08
2019-01-29T02:00:55.826Z,55.97
2019-01-29T02:01:33.108Z,55.89
2019-01-29T02:02:10.613Z,55.05
2019-01-29T02:02:51.951Z,54.45
2019-01-29T02:03:28.318Z,54.19
2019-01-29T02:04:04.801Z,53.91
2019-01-29T02:04:41.266Z,53.81
2019-01-29T02:05:20.101Z,53.77
2019-01-29T02:05:56.504Z,53.38
2019-01-29T02:06:32.958Z,52.85
2019-01-29T02:07:10.893Z,52.56
2019-01-29T02:07:48.302Z,52.19
2019-01-29T02:08:25.658Z,52.02
2019-01-29T02:09:04.026Z,51.77
2019-01-29T02:09:40.452Z,51.65
2019-01-29T02:10:38.111Z,51.47
2019-01-29T02:11:35.554Z,51.28
2019-01-29T02:12:18.747Z,51.25
2019-01-29T02:12:55.368Z,51.23
2019-01-29T02:13:31.751Z,51.17
2019-01-29T02:14:11.429Z,50.88
2019-01-29T02:14:49.337Z,50.68
2019-01-29T02:15:26.603Z,50.57
2019-01-29T02:16:12.267Z,50.58
2019-01-29T02:16:48.519Z,50.45
2019-01-29T02:17:25.989Z,50.33
2019-01-29T02:18:02.394Z,50.25
2019-01-29T02:18:39.473Z,50.33
2019-01-29T02:19:15.832Z,50.37
2019-01-29T02:19:53.174Z,50.20
2019-01-29T02:20:35.630Z,50.17
2019-01-29T02:21:14.794Z,50.22
2019-01-29T02:21:50.887Z,50.06
2019-01-29T02:22:27.249Z,50.06
2019-01-29T02:23:08.101Z,49.66
2019-01-29T02:23:44.486Z,49.42
2019-01-29T02:24:22.191Z,49.25
2019-01-29T02:26:46.270Z,48.53
2019-01-29T02:27:22.367Z,48.51
2019-01-29T02:27:58.713Z,48.44
2019-01-29T02:28:34.832Z,48.30
2019-01-29T02:29:10.889Z,48.19
2019-01-29T02:29:47.256Z,48.20
2019-01-29T02:30:24.863Z,48.29
2019-01-29T02:31:00.919Z,48.22
2019-01-29T02:31:37.147Z,48.35
2019-01-29T02:32:13.364Z,48.50
2019-01-29T02:32:49.718Z,48.69
2019-01-29T02:33:25.833Z,48.81
2019-01-29T02:34:01.992Z,49.00
2019-01-29T02:34:38.301Z,49.16
2019-01-29T02:35:14.517Z,49.26
2019-01-29T02:35:51.185Z,49.40
2019-01-29T02:36:27.295Z,49.56
2019-01-29T02:37:03.562Z,49.72
2019-01-29T02:37:39.915Z,49.86
2019-01-29T02:38:16.465Z,50.04
2019-01-29T02:38:52.762Z,50.10
2019-01-29T02:39:29.333Z,50.23
2019-01-29T02:40:06.913Z,50.16
2019-01-29T02:40:42.979Z,50.15
2019-01-29T02:41:19.085Z,50.31
2019-01-29T02:41:55.138Z,50.39
2019-01-29T02:42:31.283Z,50.57
2019-01-29T02:43:07.428Z,50.75
2019-01-29T02:43:43.922Z,50.89
2019-01-29T02:44:20.757Z,50.97
2019-01-29T02:44:56.929Z,51.03
2019-01-29T02:45:33.060Z,51.01
2019-01-29T02:46:09.235Z,50.93
2019-01-29T02:46:45.358Z,50.92
2019-01-29T02:47:21.522Z,50.84
2019-01-29T02:47:57.741Z,50.88
2019-01-29T02:48:34.203Z,50.93
2019-01-29T02:49:10.544Z,50.94
2019-01-29T02:49:46.833Z,51.07
2019-01-29T02:50:23.227Z,51.23
2019-01-29T02:50:59.355Z,51.19
2019-01-29T02:51:35.381Z,51.28
2019-01-29T02:52:11.908Z,51.35
2019-01-29T02:52:48.874Z,51.28
2019-01-29T02:53:24.939Z,51.29
2019-01-29T02:54:00.928Z,51.26
2019-01-29T02:54:37.076Z,51.29
2019-01-29T02:55:13.738Z,51.33
2019-01-29T02:55:49.883Z,51.41
2019-01-29T02:56:26.037Z,51.54
2019-01-29T02:57:02.419Z,51.59
2019-01-29T02:57:38.563Z,51.60
2019-01-29T02:58:14.645Z,51.68
2019-01-29T02:58:50.798Z,51.73
2019-01-29T02:59:26.861Z,51.74
2019-01-29T03:00:02.938Z,51.72
2019-01-29T03:00:39.279Z,51.79
2019-01-29T03:01:15.630Z,51.56
2019-01-29T03:01:51.940Z,51.42
2019-01-29T03:02:28.078Z,51.33
2019-01-29T03:03:04.440Z,51.24
2019-01-29T03:03:40.698Z,51.27
2019-01-29T03:04:16.839Z,51.29
2019-01-29T03:04:53.462Z,51.30
2019-01-29T03:05:30.382Z,51.40
2019-01-29T03:06:07.023Z,51.91
2019-01-29T03:06:43.068Z,51.96
2019-01-29T03:07:19.077Z,51.97
2019-01-29T03:07:55.202Z,51.95
2019-01-29T03:08:31.297Z,51.94
2019-01-29T03:09:10.281Z,51.98
2019-01-29T03:09:46.302Z,52.01
2019-01-29T03:10:26.544Z,52.05
2019-01-29T03:11:02.820Z,52.02
2019-01-29T03:11:39.057Z,52.06
2019-01-29T03:12:15.169Z,52.10
2019-01-29T03:12:51.320Z,52.14
2019-01-29T03:13:27.503Z,52.24
2019-01-29T03:14:03.695Z,52.30
2019-01-29T03:14:40.077Z,52.34
2019-01-29T03:15:19.100Z,52.52
2019-01-29T03:15:55.204Z,52.53
2019-01-29T03:16:31.409Z,52.39
2019-01-29T03:17:07.517Z,52.26
2019-01-29T03:17:43.636Z,52.11
2019-01-29T03:18:19.732Z,51.94
2019-01-29T03:18:57.012Z,51.86
2019-01-29T03:19:33.279Z,51.81
2019-01-29T03:20:10.382Z,51.86
2019-01-29T03:20:46.478Z,52.02
2019-01-29T03:21:22.879Z,52.22
2019-01-29T03:21:58.995Z,52.18
2019-01-29T03:22:35.776Z,51.42
2019-01-29T03:23:12.154Z,51.18
2019-01-29T03:23:48.240Z,50.94
2019-01-29T03:24:24.490Z,51.06
2019-01-29T03:25:01.068Z,51.19
2019-01-29T03:25:37.176Z,51.54
2019-01-29T03:26:13.299Z,51.74
2019-01-29T03:26:49.626Z,51.88
2019-01-29T03:27:25.870Z,51.93
2019-01-29T03:28:01.978Z,51.96
2019-01-29T03:28:38.166Z,52.09
2019-01-29T03:29:14.300Z,52.34
2019-01-29T03:29:50.574Z,52.40
2019-01-29T03:30:27.192Z,52.57
2019-01-29T03:31:03.922Z,52.65
2019-01-29T03:31:40.004Z,52.76
2019-01-29T03:32:16.118Z,53.00
2019-01-29T03:32:52.292Z,53.10
2019-01-29T03:33:28.578Z,52.52
2019-01-29T03:34:04.564Z,52.35
2019-01-29T03:34:40.733Z,52.30
2019-01-29T03:35:16.949Z,52.45
2019-01-29T03:35:53.118Z,52.52
2019-01-29T03:36:29.347Z,52.48
2019-01-29T03:37:05.386Z,52.43
2019-01-29T03:37:41.624Z,52.39
2019-01-29T03:38:17.717Z,52.35
2019-01-29T03:38:53.695Z,52.31
2019-01-29T03:39:29.787Z,52.34
2019-01-29T03:40:07.493Z,52.63
2019-01-29T03:40:43.676Z,52.64
2019-01-29T03:41:19.899Z,52.67
2019-01-29T03:41:56.077Z,52.66
2019-01-29T03:42:32.223Z,52.72
2019-01-29T03:43:08.373Z,52.36
2019-01-29T03:43:44.678Z,52.00
2019-01-29T03:44:21.732Z,51.82
2019-01-29T03:44:57.809Z,51.49
2019-01-29T03:45:33.988Z,51.36
2019-01-29T03:46:10.109Z,51.13
2019-01-29T03:46:46.304Z,50.83
2019-01-29T03:47:22.430Z,50.86
2019-01-29T03:47:58.694Z,51.26
2019-01-29T03:48:34.929Z,51.35
2019-01-29T03:49:11.515Z,51.49
2019-01-29T03:49:47.646Z,51.63
2019-01-29T03:50:24.446Z,51.62
2019-01-29T03:51:00.679Z,51.42
2019-01-29T03:51:36.807Z,51.26
2019-01-29T03:52:12.897Z,51.23
2019-01-29T03:52:49.232Z,51.19
2019-01-29T03:53:25.500Z,51.23
2019-01-29T03:54:01.522Z,51.27
2019-01-29T03:54:37.641Z,51.41
2019-01-29T03:55:14.122Z,51.48
2019-01-29T03:55:50.265Z,51.63
2019-01-29T03:56:26.319Z,51.83
2019-01-29T03:57:02.460Z,52.04
2019-01-29T03:57:39.570Z,52.03
2019-01-29T03:58:15.766Z,51.97
2019-01-29T03:58:53.141Z,51.84
2019-01-29T03:59:29.289Z,51.93
2019-01-29T04:00:06.255Z,52.19
2019-01-29T04:00:42.613Z,52.02
2019-01-29T04:01:18.844Z,51.87
2019-01-29T04:01:55.626Z,51.90
2019-01-29T04:02:31.908Z,51.91
2019-01-29T04:03:08.081Z,51.97
2019-01-29T04:03:44.147Z,52.00
2019-01-29T04:04:20.106Z,52.09
2019-01-29T04:04:56.320Z,52.14
2019-01-29T04:05:32.615Z,52.34
2019-01-29T04:06:08.690Z,52.38
2019-01-29T04:06:44.808Z,52.13
2019-01-29T04:07:20.858Z,51.94
2019-01-29T04:07:56.907Z,51.77
2019-01-29T04:08:32.957Z,51.69
2019-01-29T04:09:11.008Z,51.56
2019-01-29T04:09:47.448Z,51.40
2019-01-29T04:10:23.727Z,50.96
2019-01-29T04:10:59.878Z,50.90
2019-01-29T04:11:36.146Z,50.81
2019-01-29T04:12:12.536Z,50.66
2019-01-29T04:12:48.727Z,50.15
2019-01-29T04:13:24.873Z,49.66
2019-01-29T04:14:01.216Z,49.73
2019-01-29T04:14:37.353Z,49.84
2019-01-29T04:15:15.489Z,49.71
2019-01-29T04:15:51.723Z,49.46
2019-01-29T04:16:27.821Z,49.18
2019-01-29T04:17:05.405Z,49.17
2019-01-29T04:17:41.631Z,49.05
2019-01-29T04:18:17.721Z,48.97
2019-01-29T04:18:53.987Z,49.08
2019-01-29T04:19:30.376Z,49.18
2019-01-29T04:20:06.967Z,48.90
2019-01-29T04:20:43.363Z,48.58
2019-01-29T04:21:19.450Z,48.13
2019-01-29T04:21:55.753Z,48.01
2019-01-29T04:22:32.018Z,47.97
2019-01-29T04:23:08.215Z,47.87
2019-01-29T04:23:47.701Z,47.79
2019-01-29T04:24:22.169Z,47.88
2019-01-29T04:24:58.285Z,47.60
2019-01-29T04:26:27.566Z,47.15
2019-01-29T04:27:03.914Z,46.68
2019-01-29T04:27:40.040Z,46.45
2019-01-29T04:28:16.208Z,46.33
2019-01-29T04:28:52.543Z,46.37
2019-01-29T04:29:28.789Z,46.29
2019-01-29T04:30:05.008Z,46.30
2019-01-29T04:30:41.244Z,46.23
2019-01-29T04:31:17.294Z,46.17
2019-01-29T04:31:53.439Z,45.98
2019-01-29T04:32:29.677Z,45.98
2019-01-29T04:33:05.926Z,46.00
2019-01-29T04:33:41.970Z,45.91
2019-01-29T04:34:18.312Z,45.87
2019-01-29T04:34:54.634Z,45.67
2019-01-29T04:35:30.733Z,45.59
2019-01-29T04:36:07.678Z,45.32
2019-01-29T04:36:43.742Z,45.12
2019-01-29T04:37:19.996Z,44.82
2019-01-29T04:37:56.016Z,44.72
2019-01-29T04:38:32.259Z,44.64
2019-01-29T04:39:10.219Z,44.72
2019-01-29T04:39:46.621Z,44.70
2019-01-29T04:40:23.064Z,44.54
2019-01-29T04:40:59.960Z,44.44
2019-01-29T04:41:35.956Z,44.34
2019-01-29T04:42:12.258Z,44.12
2019-01-29T04:42:48.514Z,43.97
2019-01-29T04:43:24.753Z,43.96
2019-01-29T04:44:00.888Z,44.07
2019-01-29T04:44:37.495Z,44.37
2019-01-29T04:45:14.556Z,44.80
2019-01-29T04:45:50.890Z,44.98
2019-01-29T04:46:27.094Z,44.99
2019-01-29T04:47:03.252Z,45.05
2019-01-29T04:47:39.289Z,44.93
2019-01-29T04:48:15.409Z,44.75
2019-01-29T04:48:51.558Z,44.80
2019-01-29T04:49:28.344Z,44.81
2019-01-29T04:50:04.495Z,45.00
2019-01-29T04:50:40.765Z,45.17
2019-01-29T04:51:16.893Z,45.43
2019-01-29T04:51:53.242Z,45.31
2019-01-29T04:52:29.303Z,45.38
2019-01-29T04:53:05.240Z,45.49
2019-01-29T04:53:41.227Z,45.59
2019-01-29T04:54:17.354Z,45.52
2019-01-29T04:54:53.483Z,45.67
2019-01-29T04:55:29.596Z,45.77
2019-01-29T04:56:05.782Z,45.63
2019-01-29T04:56:41.809Z,45.70
2019-01-29T04:57:18.168Z,45.73
2019-01-29T04:57:54.204Z,45.57
2019-01-29T04:58:30.260Z,45.45
2019-01-29T04:59:06.284Z,45.29
2019-01-29T04:59:42.524Z,45.42
2019-01-29T05:00:21.361Z,45.41
2019-01-29T05:00:57.448Z,45.38
2019-01-29T05:01:33.612Z,45.46
2019-01-29T05:02:09.906Z,45.39
2019-01-29T05:02:45.934Z,45.44
2019-01-29T05:03:22.211Z,45.48
2019-01-29T05:03:58.207Z,45.49
2019-01-29T05:04:34.537Z,45.48
2019-01-29T05:05:12.099Z,45.33
2019-01-29T05:05:48.093Z,45.31
2019-01-29T05:06:24.403Z,45.26
2019-01-29T05:07:00.534Z,45.11
2019-01-29T05:07:36.674Z,44.98
2019-01-29T05:08:12.805Z,45.06
2019-01-29T05:08:49.041Z,45.16
2019-01-29T05:09:25.290Z,45.24
2019-01-29T05:10:01.389Z,45.22
2019-01-29T05:10:37.867Z,45.05
2019-01-29T05:11:13.949Z,44.96
2019-01-29T05:11:50.204Z,45.02
2019-01-29T05:12:26.280Z,45.31
2019-01-29T05:13:02.568Z,45.28
2019-01-29T05:13:38.717Z,45.14
2019-01-29T05:14:14.806Z,44.98
2019-01-29T05:14:51.089Z,44.89
2019-01-29T05:15:27.358Z,44.92
2019-01-29T05:16:03.331Z,44.90
2019-01-29T05:16:39.391Z,45.03
2019-01-29T05:17:15.423Z,45.05
2019-01-29T05:17:51.635Z,45.04
2019-01-29T05:18:27.983Z,45.02
2019-01-29T05:19:04.374Z,44.97
2019-01-29T05:19:41.178Z,44.96
2019-01-29T05:20:19.444Z,44.97
2019-01-29T05:20:55.713Z,44.91
2019-01-29T05:21:31.840Z,44.80
2019-01-29T05:22:08.035Z,44.88
2019-01-29T05:22:44.392Z,45.03
2019-01-29T05:23:20.646Z,45.01
2019-01-29T05:24:06.448Z,44.91
2019-01-29T05:24:34.684Z,44.83
2019-01-29T05:25:11.307Z,44.84
2019-01-29T05:25:47.389Z,44.94
2019-01-29T05:26:23.538Z,45.33
2019-01-29T05:26:59.851Z,45.14
2019-01-29T05:27:36.020Z,44.89
2019-01-29T05:28:12.673Z,44.66
2019-01-29T05:28:48.804Z,44.75
2019-01-29T05:29:25.078Z,44.81
2019-01-29T05:30:01.184Z,45.16
2019-01-29T05:30:37.279Z,45.10
2019-01-29T05:31:13.414Z,45.12
2019-01-29T05:31:49.512Z,44.92
2019-01-29T05:32:26.019Z,44.64
2019-01-29T05:33:02.216Z,44.38
2019-01-29T05:33:38.369Z,44.35
2019-01-29T05:34:14.676Z,44.45
2019-01-29T05:34:50.986Z,44.54
2019-01-29T05:35:27.200Z,44.59
2019-01-29T05:36:03.458Z,44.71
2019-01-29T05:36:40.181Z,44.77
2019-01-29T05:37:16.250Z,45.11
2019-01-29T05:37:52.420Z,45.35
2019-01-29T05:38:28.657Z,45.44
2019-01-29T05:39:08.216Z,45.55
2019-01-29T05:39:44.256Z,45.42
2019-01-29T05:40:21.476Z,45.25
2019-01-29T05:40:57.984Z,45.15
2019-01-29T05:41:34.157Z,45.01
2019-01-29T05:42:10.359Z,44.99
2019-01-29T05:42:46.626Z,45.08
2019-01-29T05:43:22.762Z,45.10
2019-01-29T05:43:58.803Z,45.16
2019-01-29T05:44:34.917Z,45.23
2019-01-29T05:45:13.689Z,45.79
2019-01-29T05:45:49.804Z,45.57
2019-01-29T05:46:25.924Z,45.59
2019-01-29T05:47:02.010Z,45.42
2019-01-29T05:47:38.134Z,45.53
2019-01-29T05:48:14.232Z,45.51
2019-01-29T05:48:50.234Z,45.54
2019-01-29T05:49:26.768Z,45.82
2019-01-29T05:50:03.013Z,45.99
2019-01-29T05:50:39.311Z,46.05
2019-01-29T05:51:15.451Z,46.02
2019-01-29T05:51:51.587Z,46.32
2019-01-29T05:52:27.595Z,46.42
2019-01-29T05:53:03.804Z,46.23
2019-01-29T05:53:40.340Z,45.98
2019-01-29T05:54:16.730Z,46.05
2019-01-29T05:54:52.994Z,46.20
2019-01-29T05:55:29.133Z,46.19
2019-01-29T05:56:05.429Z,45.99
2019-01-29T05:56:41.580Z,46.02
2019-01-29T05:57:18.235Z,46.16
2019-01-29T05:57:55.005Z,46.28
2019-01-29T05:58:32.000Z,46.37
2019-01-29T05:59:08.143Z,46.29
2019-01-29T05:59:44.315Z,46.27
2019-01-29T06:00:27.520Z,46.18
2019-01-29T06:01:03.806Z,46.08
2019-01-29T06:01:40.021Z,46.05
2019-01-29T06:02:16.353Z,45.61
2019-01-29T06:02:52.883Z,45.57
2019-01-29T06:03:29.149Z,45.55
2019-01-29T06:04:05.540Z,45.49
2019-01-29T06:04:41.826Z,45.37
2019-01-29T06:05:18.224Z,45.26
2019-01-29T06:05:54.336Z,45.22
2019-01-29T06:06:30.834Z,45.17
2019-01-29T06:07:07.723Z,45.26
2019-01-29T06:07:43.757Z,45.35
2019-01-29T06:08:19.829Z,45.29
2019-01-29T06:08:56.053Z,45.25
2019-01-29T06:09:32.243Z,45.22
2019-01-29T06:10:09.261Z,45.28
2019-01-29T06:10:46.269Z,45.68
2019-01-29T06:11:23.631Z,45.49
2019-01-29T06:11:59.680Z,45.24
2019-01-29T06:12:36.059Z,45.16
2019-01-29T06:13:12.222Z,45.19
2019-01-29T06:13:48.347Z,45.28
2019-01-29T06:14:24.472Z,45.16
2019-01-29T06:15:00.607Z,45.07
2019-01-29T06:15:36.693Z,45.08
2019-01-29T06:16:12.928Z,45.12
2019-01-29T06:16:49.071Z,45.25
2019-01-29T06:17:27.546Z,45.05
2019-01-29T06:18:03.235Z,45.06
2019-01-29T06:18:39.364Z,44.86
2019-01-29T06:19:15.500Z,44.67
2019-01-29T06:19:52.048Z,44.71
2019-01-29T06:20:29.025Z,44.75
2019-01-29T06:21:05.376Z,44.81
2019-01-29T06:21:41.743Z,44.81
2019-01-29T06:22:17.969Z,44.84
2019-01-29T06:22:54.099Z,44.76
2019-01-29T06:23:30.259Z,44.69
2019-01-29T06:24:06.907Z,44.60
2019-01-29T06:24:42.980Z,44.62
2019-01-29T06:25:19.314Z,44.49
2019-01-29T06:25:55.361Z,44.38
2019-01-29T06:26:31.528Z,44.33
2019-01-29T06:27:07.610Z,44.17
2019-01-29T06:27:44.030Z,44.11
2019-01-29T06:28:20.320Z,44.16
2019-01-29T06:28:56.603Z,44.10
2019-01-29T06:29:32.886Z,44.07
2019-01-29T06:30:10.463Z,43.94
2019-01-29T06:30:46.704Z,43.84
2019-01-29T06:31:22.935Z,43.89
2019-01-29T06:31:59.144Z,43.98
2019-01-29T06:32:35.972Z,44.16
2019-01-29T06:33:12.074Z,44.40
2019-01-29T06:33:48.496Z,44.52
2019-01-29T06:34:24.730Z,44.44
2019-01-29T06:35:00.986Z,44.28
2019-01-29T06:35:37.048Z,44.26
2019-01-29T06:36:13.393Z,44.15
2019-01-29T06:36:51.022Z,44.22
2019-01-29T06:37:27.306Z,44.35
2019-01-29T06:38:03.568Z,44.53
2019-01-29T06:38:39.720Z,44.59
2019-01-29T06:39:15.874Z,44.58
2019-01-29T06:39:52.082Z,44.60
2019-01-29T06:40:29.418Z,44.65
2019-01-29T06:41:06.079Z,44.73
2019-01-29T06:41:42.422Z,44.72
2019-01-29T06:42:18.618Z,44.75
2019-01-29T06:42:54.880Z,44.55
2019-01-29T06:43:31.125Z,44.32
2019-01-29T06:44:07.260Z,44.04
2019-01-29T06:44:43.421Z,43.59
2019-01-29T06:45:20.802Z,43.58
2019-01-29T06:45:57.425Z,43.28
2019-01-29T06:46:33.566Z,43.14
2019-01-29T06:47:09.862Z,43.01
2019-01-29T06:47:46.351Z,42.96
2019-01-29T06:48:22.471Z,43.10
2019-01-29T06:48:58.622Z,43.21
2019-01-29T06:49:35.571Z,43.63
2019-01-29T06:50:14.247Z,44.44
2019-01-29T06:50:50.397Z,45.24
2019-01-29T06:51:26.493Z,45.57
2019-01-29T06:52:02.804Z,45.65
2019-01-29T06:52:39.028Z,46.06
2019-01-29T06:53:15.125Z,46.03
2019-01-29T06:53:51.277Z,46.08
2019-01-29T06:54:34.000Z,46.23
2019-01-29T06:55:06.661Z,46.40
2019-01-29T06:55:42.889Z,46.83
2019-01-29T06:56:19.262Z,46.91
2019-01-29T06:56:55.447Z,47.11
2019-01-29T06:57:31.767Z,46.87
2019-01-29T06:58:08.043Z,46.90
2019-01-29T06:58:44.385Z,46.97
2019-01-29T06:59:20.593Z,47.08
2019-01-29T06:59:56.763Z,47.43
2019-01-29T07:00:33.744Z,47.34
2019-01-29T07:01:09.995Z,47.25
2019-01-29T07:01:46.171Z,47.28
2019-01-29T07:02:22.294Z,47.25
2019-01-29T07:02:58.744Z,47.26
2019-01-29T07:03:34.904Z,47.30
2019-01-29T07:04:11.019Z,47.28
2019-01-29T07:04:47.019Z,47.21
2019-01-29T07:05:23.230Z,47.32
2019-01-29T07:05:59.378Z,47.42
2019-01-29T07:06:35.611Z,47.64
2019-01-29T07:07:11.780Z,47.80
2019-01-29T07:07:48.014Z,48.03
2019-01-29T07:08:24.060Z,48.15
2019-01-29T07:09:00.154Z,48.26
2019-01-29T07:09:36.254Z,48.31
2019-01-29T07:10:13.432Z,48.40
2019-01-29T07:10:49.712Z,48.72
2019-01-29T07:11:25.859Z,48.83
2019-01-29T07:12:03.945Z,49.14
2019-01-29T07:12:40.070Z,49.27
2019-01-29T07:13:16.372Z,49.36
2019-01-29T07:13:52.600Z,49.60
2019-01-29T07:14:28.883Z,49.74
2019-01-29T07:15:05.372Z,49.91
2019-01-29T07:15:58.809Z,50.33
2019-01-29T07:16:47.433Z,50.56
2019-01-29T07:17:44.980Z,50.77
2019-01-29T07:18:36.068Z,51.06
2019-01-29T07:19:25.938Z,51.39
2019-01-29T07:20:07.108Z,51.51
2019-01-29T07:20:43.358Z,51.77
2019-01-29T07:21:19.399Z,51.94
2019-01-29T07:21:55.682Z,52.05
2019-01-29T07:22:32.138Z,52.06
2019-01-29T07:23:08.200Z,52.25
2019-01-29T07:23:44.550Z,52.27
2019-01-29T07:24:20.862Z,52.33
2019-01-29T07:24:57.181Z,52.45
2019-01-29T07:25:33.394Z,52.52
2019-01-29T07:26:09.428Z,52.83
2019-01-29T07:26:45.400Z,52.83
2019-01-29T07:27:21.599Z,52.92
2019-01-29T07:27:57.673Z,53.02
2019-01-29T07:28:33.818Z,53.09
2019-01-29T07:29:10.121Z,53.52
2019-01-29T07:29:46.451Z,53.50
2019-01-29T07:30:22.747Z,53.55
2019-01-29T07:30:58.887Z,53.57
2019-01-29T07:31:35.145Z,53.69
2019-01-29T07:32:11.298Z,53.67
2019-01-29T07:32:47.438Z,53.87
2019-01-29T07:33:23.797Z,53.90
2019-01-29T07:33:59.805Z,53.91
2019-01-29T07:34:36.145Z,53.92
2019-01-29T07:35:12.475Z,54.22
2019-01-29T07:35:48.554Z,54.26
2019-01-29T07:36:24.854Z,54.30
2019-01-29T07:37:01.057Z,54.34
2019-01-29T07:37:37.347Z,54.46
2019-01-29T07:38:13.490Z,54.53
2019-01-29T07:38:49.606Z,54.59
2019-01-29T07:39:25.877Z,54.64
2019-01-29T07:40:02.060Z,54.73
2019-01-29T07:40:38.312Z,54.84
2019-01-29T07:41:14.592Z,54.96
2019-01-29T07:41:50.765Z,55.04
2019-01-29T07:42:27.071Z,55.13
2019-01-29T07:43:03.341Z,55.20
2019-01-29T07:43:39.427Z,55.20
2019-01-29T07:44:15.637Z,55.37
2019-01-29T07:44:52.491Z,55.28
2019-01-29T07:45:28.699Z,55.29
2019-01-29T07:46:05.368Z,55.33
2019-01-29T07:46:41.710Z,55.33
2019-01-29T07:47:18.047Z,55.39
2019-01-29T07:47:54.213Z,55.36
2019-01-29T07:48:30.369Z,55.41
2019-01-29T07:49:06.836Z,55.40
2019-01-29T07:49:43.237Z,55.36
2019-01-29T07:50:19.660Z,55.53
2019-01-29T07:50:55.982Z,55.60
2019-01-29T07:51:32.091Z,55.67
2019-01-29T07:52:08.663Z,55.75
2019-01-29T07:52:44.754Z,56.04
2019-01-29T07:53:20.903Z,56.03
2019-01-29T07:53:57.303Z,56.05
2019-01-29T07:54:33.639Z,56.13
2019-01-29T07:55:09.998Z,56.09
2019-01-29T07:55:46.260Z,56.26
2019-01-29T07:56:22.428Z,56.38
2019-01-29T07:56:58.470Z,56.29
2019-01-29T07:57:34.661Z,56.36
2019-01-29T07:58:10.747Z,56.31
2019-01-29T07:58:46.931Z,56.29
2019-01-29T07:59:32.674Z,56.29
2019-01-29T08:00:01.134Z,56.25